Time;durP1;ratioP1;P1;durP2;ratioP2;P2;SDS_P1;SDS_P2;PMS_P1;PMS_P2;Temp;Humidity;BMP_temperature;BMP_pressure;BME280_temperature;BME280_humidity;BME280_pressure;Samples;Min_cycle;Max_cycle;Signal;HPM_P1;HPM_P2
2022/01/13 00:02:11;;;;;;;28.23;10.30;;;;;;;;;;5006576;28;20117;-74
2022/01/13 00:04:37;;;;;;;35.67;10.40;;;;;;;;;;4984826;28;20022;-74
2022/01/13 00:07:03;;;;;;;19.83;9.45;;;;;;;;;;5003040;28;20042;-74
2022/01/13 00:09:29;;;;;;;24.25;8.98;;;;;;;;;;5005248;28;20060;-74
2022/01/13 00:11:57;;;;;;;30.00;10.30;;;;;;;;;;5008561;28;20069;-75
2022/01/13 00:19:55;;;;;;;24.23;10.10;;;;;;;;;;5007988;28;20065;-74
2022/01/13 00:24:45;;;;;;;27.27;10.75;;;;;;;;;;5005623;28;20034;-74
2022/01/13 00:27:13;;;;;;;17.58;9.68;;;;;;;;;;5005839;28;20028;-74
2022/01/13 00:29:43;;;;;;;30.45;10.82;;;;;;;;;;5005484;28;20088;-74
2022/01/13 00:32:11;;;;;;;35.05;10.52;;;;;;;;;;4999094;28;20042;-74
2022/01/13 00:34:37;;;;;;;36.20;9.65;;;;;;;;;;4990873;28;20034;-74
2022/01/13 00:37:04;;;;;;;38.20;11.05;;;;;;;;;;4998711;28;20026;-74
2022/01/13 00:39:30;;;;;;;29.70;11.50;;;;;;;;;;5005602;28;20037;-74
2022/01/13 00:41:56;;;;;;;35.72;10.93;;;;;;;;;;4998961;28;20057;-74
2022/01/13 00:44:22;;;;;;;73.93;12.68;;;;;;;;;;4984473;28;20045;-74
2022/01/13 00:46:58;;;;;;;48.22;11.43;;;5.30;99.90;;;;;;4987906;28;20037;-74
2022/01/13 00:49:24;;;;;;;36.03;11.50;;;;;;;;;;5001614;28;20125;-73
2022/01/13 00:51:51;;;;;;;54.28;12.85;;;;;;;;;;5007994;28;20109;-73
2022/01/13 00:54:17;;;;;;;43.90;12.45;;;;;;;;;;5003074;28;20045;-74
2022/01/13 00:56:43;;;;;;;40.85;11.70;;;;;;;;;;5009627;28;20026;-73
2022/01/13 00:59:12;;;;;;;42.53;12.38;;;5.10;99.90;;;;;;5004968;28;20608;-73
2022/01/13 01:01:40;;;;;;;48.35;12.68;;;;;;;;;;4989711;28;20468;-73
2022/01/13 01:04:06;;;;;;;36.47;12.15;;;;;;;;;;5004786;28;20034;-74
2022/01/13 01:06:33;;;;;;;83.82;14.73;;;;;;;;;;5003136;28;20042;-75
2022/01/13 01:08:59;;;;;;;38.05;11.10;;;;;;;;;;5006653;28;20117;-75
2022/01/13 01:11:26;;;;;;;38.72;11.85;;;;;;;;;;5005442;28;20062;-74
2022/01/13 01:13:53;;;;;;;37.20;11.77;;;;;;;;;;5004931;28;20057;-74
2022/01/13 01:16:19;;;;;;;42.97;12.90;;;;;;;;;;5011004;28;20030;-74
2022/01/13 01:23:57;;;;;;;39.53;11.98;;;;;;;;;;5007435;28;20042;-74
2022/01/13 01:26:39;;;;;;;64.38;13.48;;;;;;;;;;4990930;28;20038;-75
2022/01/13 01:32:08;;;;;;;65.28;12.57;;;;;;;;;;4995421;28;20034;-75
2022/01/13 01:34:55;;;;;;;47.20;12.40;;;;;;;;;;4990361;28;20560;-73
2022/01/13 01:37:26;;;;;;;44.60;11.95;;;;;;;;;;4994757;28;20070;-75
2022/01/13 01:39:53;;;;;;;46.78;11.90;;;;;;;;;;4998108;28;20026;-74
2022/01/13 01:42:21;;;;;;;49.13;12.13;;;5.20;99.90;;;;;;4995378;28;20035;-74
2022/01/13 01:44:49;;;;;;;91.63;12.85;;;;;;;;;;4999269;28;20026;-74
2022/01/13 01:47:17;;;;;;;36.17;11.25;;;5.30;99.90;;;;;;4998707;28;20035;-74
2022/01/13 01:49:46;;;;;;;39.53;11.90;;;;;;;;;;4999508;28;20029;-74
2022/01/13 01:52:18;;;;;;;55.88;11.90;;;5.30;99.90;;;;;;5007562;28;20392;-74
2022/01/13 01:54:45;;;;;;;53.50;11.80;;;;;;;;;;5001424;28;20030;-74
2022/01/13 01:57:11;;;;;;;68.55;11.80;;;;;;;;;;4990579;28;20038;-75
2022/01/13 01:59:40;;;;;;;45.42;10.85;;;;;;;;;;5000821;28;20117;-74
2022/01/13 02:02:07;;;;;;;40.83;10.30;;;;;;;;;;5002196;28;20056;-74
2022/01/13 02:04:33;;;;;;;40.83;10.45;;;;;;;;;;4983370;28;20073;-74
2022/01/13 02:07:03;;;;;;;59.13;10.70;;;;;;;;;;5008246;28;20041;-74
2022/01/13 02:09:29;;;;;;;60.88;11.70;;;;;;;;;;5000964;28;20048;-74
2022/01/13 02:12:04;;;;;;;67.93;10.73;;;;;;;;;;5008490;28;20109;-75
2022/01/13 02:14:34;;;;;;;57.10;10.90;;;;;;;;;;4999442;28;20049;-74
2022/01/13 02:17:06;;;;;;;48.78;11.00;;;;;;;;;;5017968;28;20064;-74
2022/01/13 02:19:33;;;;;;;68.15;11.93;;;;;;;;;;4999661;28;20025;-74
2022/01/13 02:21:59;;;;;;;74.38;11.45;;;;;;;;;;4979830;28;20093;-74
2022/01/13 02:24:26;;;;;;;81.10;12.18;;;;;;;;;;4999538;28;20423;-74
2022/01/13 02:26:52;;;;;;;105.28;13.38;;;;;;;;;;5007164;28;20038;-74
2022/01/13 02:29:18;;;;;;;57.88;12.02;;;;;;;;;;5000784;28;20037;-74
2022/01/13 02:31:44;;;;;;;87.07;14.35;;;;;;;;;;5005536;28;20044;-74
2022/01/13 02:34:10;;;;;;;114.68;15.43;;;;;;;;;;5002299;28;20116;-74
2022/01/13 02:36:37;;;;;;;141.63;14.38;;;;;;;;;;5007605;28;20113;-74
2022/01/13 02:39:04;;;;;;;87.28;12.70;;;;;;;;;;5001461;28;20036;-74
2022/01/13 02:41:30;;;;;;;94.53;12.75;;;;;;;;;;4997811;28;20037;-74
2022/01/13 02:43:58;;;;;;;128.98;14.95;;;;;;;;;;4999734;28;20030;-74
2022/01/13 02:49:04;;;;;;;96.38;16.25;;;;;;;;;;5000408;28;20038;-74
2022/01/13 02:51:30;;;;;;;159.52;17.42;;;;;;;;;;5001931;28;20037;-75
2022/01/13 02:53:57;;;;;;;141.32;16.25;;;;;;;;;;4998119;28;20026;-75
2022/01/13 02:56:23;;;;;;;84.03;14.18;;;;;;;;;;4997741;28;20034;-75
2022/01/13 02:58:49;;;;;;;135.35;15.63;;;;;;;;;;5001043;28;20080;-75
2022/01/13 03:01:15;;;;;;;75.63;14.07;;;;;;;;;;4997355;28;20361;-75
2022/01/13 03:03:42;;;;;;;89.45;14.45;;;;;;;;;;5002185;28;20061;-75
2022/01/13 03:06:08;;;;;;;119.38;15.43;;;;;;;;;;5005924;28;20087;-74
2022/01/13 03:08:35;;;;;;;129.63;16.35;;;;;;;;;;4983173;28;20034;-74
2022/01/13 03:11:01;;;;;;;81.68;14.35;;;;;;;;;;4995062;28;20056;-75
2022/01/13 03:13:29;;;;;;;117.10;16.15;;;;;;;;;;4983100;28;20395;-75
2022/01/13 03:15:55;;;;;;;89.18;15.35;;;;;;;;;;5006833;28;20121;-75
2022/01/13 03:18:21;;;;;;;71.28;13.65;;;;;;;;;;4999097;28;20120;-74
2022/01/13 03:20:47;;;;;;;55.70;12.02;;;;;;;;;;4998542;28;20085;-76
2022/01/13 03:23:17;;;;;;;64.57;13.20;;;;;;;;;;5001899;28;20045;-75
2022/01/13 03:25:47;;;;;;;78.25;13.77;;;;;;;;;;5006192;28;20116;-74
2022/01/13 03:28:28;;;;;;;82.38;13.68;;;;;;;;;;4995226;28;20125;-74
2022/01/13 03:30:54;;;;;;;67.03;13.98;;;;;;;;;;4998840;28;20037;-74
2022/01/13 03:33:20;;;;;;;69.20;12.98;;;;;;;;;;5005822;28;20081;-74
2022/01/13 03:35:46;;;;;;;97.88;12.85;;;;;;;;;;5003490;28;20461;-74
2022/01/13 03:38:12;;;;;;;134.35;15.65;;;;;;;;;;5005042;28;20038;-74
2022/01/13 03:40:38;;;;;;;97.82;13.30;;;;;;;;;;5001621;28;20026;-74
2022/01/13 03:43:05;;;;;;;89.68;13.65;;;5.20;99.90;;;;;;5007675;28;20037;-73
2022/01/13 03:45:32;;;;;;;79.32;13.35;;;;;;;;;;5002353;28;20034;-74
2022/01/13 03:47:58;;;;;;;96.43;14.80;;;;;;;;;;5007646;28;20503;-74
2022/01/13 03:50:24;;;;;;;94.32;14.13;;;;;;;;;;5003148;28;20113;-74
2022/01/13 03:53:01;;;;;;;104.57;14.30;;;;;;;;;;4996608;28;20957;-74
2022/01/13 03:55:36;;;;;;;78.35;13.65;;;;;;;;;;5001122;28;20026;-74
2022/01/13 03:58:39;;;;;;;94.50;14.82;;;5.60;99.90;;;;;;5010352;28;20553;-74
2022/01/13 04:01:21;;;;;;;140.60;17.20;;;;;;;;;;4998254;28;20058;-74
2022/01/13 04:03:47;;;;;;;115.28;15.38;;;;;;;;;;5002336;28;20022;-74
2022/01/13 04:06:16;;;;;;;115.93;15.57;;;;;;;;;;5004757;28;20407;-74
2022/01/13 04:08:45;;;;;;;198.20;18.77;;;;;;;;;;5004873;28;20037;-73
2022/01/13 04:11:14;;;;;;;158.13;17.00;;;;;;;;;;5006332;28;20387;-74
2022/01/13 04:16:09;;;;;;;97.57;14.98;;;;;;;;;;5003195;28;20037;-74
2022/01/13 04:18:35;;;;;;;130.93;17.15;;;;;;;;;;5000944;28;20088;-74
2022/01/13 04:21:04;;;;;;;110.25;16.35;;;;;;;;;;4997640;28;20057;-74
2022/01/13 04:23:30;;;;;;;130.10;15.18;;;;;;;;;;5002289;28;20062;-73
2022/01/13 04:25:56;;;;;;;190.73;21.88;;;;;;;;;;5005316;28;20578;-73
2022/01/13 04:28:27;;;;;;;115.13;15.65;;;;;;;;;;5004761;28;20562;-75
2022/01/13 04:30:53;;;;;;;158.73;16.60;;;;;;;;;;5006835;28;20084;-75
2022/01/13 04:33:19;;;;;;;173.82;18.40;;;;;;;;;;4999882;28;20057;-74
2022/01/13 04:35:46;;;;;;;179.27;19.75;;;;;;;;;;5004706;28;20173;-74
2022/01/13 04:38:12;;;;;;;127.43;17.73;;;;;;;;;;5001628;28;20027;-73
2022/01/13 04:40:44;;;;;;;157.25;17.90;;;;;;;;;;5003947;28;20026;-73
2022/01/13 04:43:11;;;;;;;218.77;20.95;;;;;;;;;;5000514;28;20124;-74
2022/01/13 04:45:37;;;;;;;135.35;17.83;;;;;;;;;;5012888;28;20062;-73
2022/01/13 04:48:03;;;;;;;108.68;17.92;;;;;;;;;;5001723;28;20045;-73
2022/01/13 04:50:29;;;;;;;153.13;19.38;;;;;;;;;;4998609;28;20395;-74
2022/01/13 04:52:55;;;;;;;178.45;20.13;;;;;;;;;;5000329;28;20073;-74
2022/01/13 04:55:25;;;;;;;99.80;18.85;;;;;;;;;;5004366;28;20034;-73
2022/01/13 04:57:51;;;;;;;150.63;19.67;;;;;;;;;;5004338;28;20205;-74
2022/01/13 05:00:17;;;;;;;168.02;19.50;;;;;;;;;;5002100;28;20037;-74
2022/01/13 05:02:43;;;;;;;99.60;18.65;;;;;;;;;;4999393;28;20637;-73
2022/01/13 05:05:10;;;;;;;121.15;20.35;;;;;;;;;;5004197;28;20064;-74
2022/01/13 05:07:36;;;;;;;166.65;21.00;;;;;;;;;;5000454;28;20062;-73
2022/01/13 05:10:04;;;;;;;161.05;20.60;;;;;;;;;;4998981;28;20065;-73
2022/01/13 05:12:37;;;;;;;154.57;19.83;;;;;;;;;;4987963;28;20423;-73
2022/01/13 05:15:05;;;;;;;118.03;18.77;;;;;;;;;;4999560;28;20085;-71
2022/01/13 05:18:20;;;;;;;179.70;21.48;;;;;;;;;;5008463;28;20054;-71
2022/01/13 05:20:21;;;;;;;138.32;18.42;;;;;;;;;;4993709;28;20026;-72
2022/01/13 05:22:47;;;;;;;187.80;22.23;;;;;;;;;;4996596;28;20088;-73
2022/01/13 05:25:14;;;;;;;164.73;24.60;;;;;;;;;;4984283;28;20115;-74
2022/01/13 05:27:40;;;;;;;173.68;19.98;;;;;;;;;;5008616;28;20088;-73
2022/01/13 05:30:07;;;;;;;358.50;23.80;;;;;;;;;;5000891;28;20030;-73
2022/01/13 05:32:33;;;;;;;339.75;25.88;;;;;;;;;;4991990;28;20045;-72
2022/01/13 05:34:59;;;;;;;174.13;20.83;;;;;;;;;;5001585;28;20403;-72
2022/01/13 05:37:25;;;;;;;169.45;18.90;;;;;;;;;;5008565;28;20026;-71
2022/01/13 05:39:51;;;;;;;184.05;20.42;;;;;;;;;;4985972;28;20050;-72
2022/01/13 05:42:17;;;;;;;179.00;20.90;;;;;;;;;;4999643;28;20030;-71
2022/01/13 05:44:43;;;;;;;181.60;21.27;;;;;;;;;;5001974;28;20121;-71
2022/01/13 05:47:10;;;;;;;209.50;24.33;;;;;;;;;;5004699;28;20030;-71
2022/01/13 05:49:38;;;;;;;190.27;22.95;;;;;;;;;;4985028;28;20585;-73
2022/01/13 05:52:04;;;;;;;224.45;25.58;;;;;;;;;;4996331;28;20072;-72
2022/01/13 05:54:30;;;;;;;189.35;24.45;;;;;;;;;;4999243;28;20531;-72
2022/01/13 05:56:56;;;;;;;234.75;25.23;;;;;;;;;;5004733;28;20049;-72
2022/01/13 05:59:23;;;;;;;174.65;24.77;;;;;;;;;;5000401;28;20037;-72
2022/01/13 06:01:49;;;;;;;242.07;27.30;;;;;;;;;;5005267;28;20028;-72
2022/01/13 06:04:15;;;;;;;248.30;27.27;;;;;;;;;;5000454;28;20038;-71
2022/01/13 06:06:41;;;;;;;229.23;26.60;;;;;;;;;;5007369;28;20026;-73
2022/01/13 06:09:07;;;;;;;203.02;25.98;;;;;;;;;;5000410;28;20412;-75
2022/01/13 06:11:56;;;;;;;228.95;44.30;;;;;;;;;;5003328;28;20038;-74
2022/01/13 06:14:22;;;;;;;243.07;28.05;;;;;;;;;;4987415;28;20124;-73
2022/01/13 06:16:48;;;;;;;259.75;28.73;;;;;;;;;;5004846;28;20070;-74
2022/01/13 06:19:14;;;;;;;188.60;25.23;;;;;;;;;;4984863;28;20070;-75
2022/01/13 06:21:40;;;;;;;165.18;23.67;;;;;;;;;;5001139;28;20045;-74
2022/01/13 06:24:06;;;;;;;174.32;24.60;;;;;;;;;;5001732;28;20030;-75
2022/01/13 06:26:32;;;;;;;223.10;24.75;;;;;;;;;;5000211;28;20033;-75
2022/01/13 06:28:58;;;;;;;201.70;24.63;;;;;;;;;;4999523;28;20507;-76
2022/01/13 06:31:24;;;;;;;178.55;23.17;;;;;;;;;;5002248;28;20076;-75
2022/01/13 06:33:50;;;;;;;223.27;25.73;;;;;;;;;;5003386;28;20120;-76
2022/01/13 06:36:16;;;;;;;161.55;25.20;;;;;;;;;;5000925;28;21100;-75
2022/01/13 06:38:42;;;;;;;182.15;26.48;;;;;;;;;;5002445;28;20038;-75
2022/01/13 06:41:09;;;;;;;161.00;25.65;;;;;;;;;;5000204;28;20048;-75
2022/01/13 06:43:36;;;;;;;153.65;25.65;;;;;;;;;;5003466;28;20034;-75
2022/01/13 06:46:02;;;;;;;170.23;23.48;;;;;;;;;;5004425;28;20030;-76
2022/01/13 06:48:28;;;;;;;182.38;23.70;;;;;;;;;;4982996;28;20127;-75
2022/01/13 06:50:54;;;;;;;182.20;24.63;;;;;;;;;;4998130;28;20033;-76
2022/01/13 06:53:21;;;;;;;164.00;22.55;;;;;;;;;;4983617;28;20046;-75
2022/01/13 06:55:47;;;;;;;193.07;26.17;;;;;;;;;;5000887;28;20034;-75
2022/01/13 06:58:13;;;;;;;188.95;23.10;;;;;;;;;;5004563;28;20064;-76
2022/01/13 07:00:40;;;;;;;146.45;22.38;;;;;;;;;;5002404;28;20065;-74
2022/01/13 07:03:06;;;;;;;192.20;23.15;;;;;;;;;;4985242;28;20057;-74
2022/01/13 07:05:32;;;;;;;146.10;21.63;;;;;;;;;;4984285;28;20034;-72
2022/01/13 07:07:58;;;;;;;132.25;20.60;;;;;;;;;;5000189;28;20438;-72
2022/01/13 07:10:24;;;;;;;181.88;21.60;;;;;;;;;;4993368;28;20046;-73
2022/01/13 07:12:50;;;;;;;155.48;20.88;;;;;;;;;;4995156;28;20052;-74
2022/01/13 07:15:16;;;;;;;198.35;21.23;;;;;;;;;;4994369;28;20492;-74
2022/01/13 07:17:43;;;;;;;124.05;21.02;;;;;;;;;;5000236;28;20043;-75
2022/01/13 07:20:09;;;;;;;102.65;24.42;;;;;;;;;;5001686;28;20030;-73
2022/01/13 07:22:42;;;;;;;104.68;19.60;;;;;;;;;;4999153;28;20086;-73
2022/01/13 07:25:08;;;;;;;124.13;19.05;;;;;;;;;;4983100;28;20110;-72
2022/01/13 07:27:34;;;;;;;155.43;22.00;;;;;;;;;;4998900;28;20759;-73
2022/01/13 07:30:00;;;;;;;118.22;20.90;;;;;;;;;;5001664;28;20434;-74
2022/01/13 07:32:26;;;;;;;126.35;26.60;;;;;;;;;;5001458;28;20073;-74
2022/01/13 07:34:52;;;;;;;125.00;31.83;;;;;;;;;;5002774;28;20035;-74
2022/01/13 07:37:18;;;;;;;128.80;20.95;;;;;;;;;;5002935;28;20026;-74
2022/01/13 07:39:45;;;;;;;127.93;21.83;;;;;;;;;;4988556;28;20526;-74
2022/01/13 07:42:11;;;;;;;130.85;21.13;;;;;;;;;;5000549;28;20030;-74
2022/01/13 07:44:37;;;;;;;118.25;22.05;;;;;;;;;;4993556;28;20464;-74
2022/01/13 07:47:03;;;;;;;196.50;24.13;;;;;;;;;;4978501;28;20042;-73
2022/01/13 07:49:30;;;;;;;132.07;23.00;;;;;;;;;;4995264;28;20530;-74
2022/01/13 07:51:57;;;;;;;107.97;20.92;;;;;;;;;;4996183;28;20048;-74
2022/01/13 07:54:25;;;;;;;129.32;22.58;;;;;;;;;;4994241;28;20100;-74
2022/01/13 07:56:52;;;;;;;164.98;20.65;;;;;;;;;;4994091;28;20534;-74
2022/01/13 07:59:18;;;;;;;98.43;21.13;;;;;;;;;;4981685;28;20076;-73
2022/01/13 08:01:44;;;;;;;112.03;20.25;;;;;;;;;;4997237;28;20066;-74
2022/01/13 08:04:10;;;;;;;109.00;20.67;;;;;;;;;;4981337;28;20093;-76
2022/01/13 08:06:36;;;;;;;99.82;19.85;;;;;;;;;;4997225;28;20034;-72
2022/01/13 08:09:02;;;;;;;108.53;19.52;;;;;;;;;;4995769;28;20117;-71
2022/01/13 08:11:28;;;;;;;99.38;20.48;;;;;;;;;;4999103;28;20111;-71
2022/01/13 08:13:54;;;;;;;105.22;22.73;;;;;;;;;;5001075;28;20066;-71
2022/01/13 08:16:20;;;;;;;109.85;35.90;;;;;;;;;;5001622;28;20041;-73
2022/01/13 08:21:31;;;;;;;86.93;23.02;;;;;;;;;;4999710;28;20045;-72
2022/01/13 08:23:57;;;;;;;92.50;22.02;;;;;;;;;;4999912;28;20030;-72
2022/01/13 08:26:23;;;;;;;97.35;21.77;;;;;;;;;;5001380;28;20038;-72
2022/01/13 08:28:49;;;;;;;111.90;26.15;;;;;;;;;;5004875;28;20041;-72
2022/01/13 08:31:15;;;;;;;99.45;22.30;;;;;;;;;;4989695;28;21007;-72
2022/01/13 08:33:41;;;;;;;93.00;23.08;;;;;;;;;;4999811;28;20388;-72
2022/01/13 08:36:07;;;;;;;111.60;24.40;;;;;;;;;;4971044;28;20052;-72
2022/01/13 08:38:34;;;;;;;93.18;25.90;;;;;;;;;;4999822;28;20376;-71
2022/01/13 08:41:00;;;;;;;109.72;25.75;;;;;;;;;;5007237;28;20069;-72
2022/01/13 08:43:28;;;;;;;103.07;25.30;;;;;;;;;;5006646;28;20042;-71
2022/01/13 08:45:54;;;;;;;85.95;23.90;;;;;;;;;;5002386;28;20068;-71
2022/01/13 08:48:21;;;;;;;82.38;23.38;;;;;;;;;;5006690;28;20499;-72
2022/01/13 08:50:47;;;;;;;93.40;24.98;;;;;;;;;;5004852;28;20045;-71
2022/01/13 08:53:17;;;;;;;96.53;26.30;;;;;;;;;;5004204;28;20032;-71
2022/01/13 08:55:44;;;;;;;101.80;27.10;;;;;;;;;;5003534;28;20057;-72
2022/01/13 08:58:10;;;;;;;93.82;25.65;;;;;;;;;;5006867;28;20038;-72
2022/01/13 09:00:37;;;;;;;79.68;26.70;;;;;;;;;;5006777;28;20030;-72
2022/01/13 09:03:06;;;;;;;94.35;25.05;;;;;;;;;;5003446;28;20049;-71
2022/01/13 09:05:33;;;;;;;91.63;26.92;;;;;;;;;;5016958;28;20022;-72
2022/01/13 09:07:59;;;;;;;100.60;26.35;;;;;;;;;;5004558;28;20026;-72
2022/01/13 09:10:25;;;;;;;95.18;26.60;;;;;;;;;;4991101;28;20750;-72
2022/01/13 09:12:51;;;;;;;82.90;25.25;;;;;;;;;;4987996;28;20029;-72
2022/01/13 09:15:25;;;;;;;91.85;25.95;;;;;;;;;;5007995;28;20112;-72
2022/01/13 09:17:53;;;;;;;102.50;26.25;;;;;;;;;;5005183;28;20030;-72
2022/01/13 09:20:20;;;;;;;99.13;25.67;;;;;;;;;;4991382;28;20029;-72
2022/01/13 09:22:47;;;;;;;100.65;27.17;;;;;;;;;;4988007;28;20044;-71
2022/01/13 09:25:13;;;;;;;101.07;25.67;;;;;;;;;;5005756;28;20136;-71
2022/01/13 09:27:40;;;;;;;89.88;25.40;;;;;;;;;;4985797;28;20026;-72
2022/01/13 09:30:07;;;;;;;90.07;25.60;;;;;;;;;;4999480;28;20356;-72
2022/01/13 09:32:33;;;;;;;96.93;27.77;;;;;;;;;;5000576;28;20113;-72
2022/01/13 09:34:59;;;;;;;102.80;27.00;;;;;;;;;;4975437;28;20129;-71
2022/01/13 09:37:25;;;;;;;95.18;27.20;;;;;;;;;;4986660;28;20133;-72
2022/01/13 09:39:51;;;;;;;97.45;28.27;;;;;;;;;;5009969;28;20037;-72
2022/01/13 09:42:17;;;;;;;105.18;30.20;;;;;;;;;;5001884;28;20088;-72
2022/01/13 09:44:44;;;;;;;89.03;29.30;;;;;;;;;;5004179;28;20479;-72
2022/01/13 09:47:10;;;;;;;82.40;27.60;;;;;;;;;;5001972;28;20099;-72
2022/01/13 09:49:36;;;;;;;102.63;29.83;;;;;;;;;;4995707;28;20045;-72
2022/01/13 09:52:02;;;;;;;88.95;29.92;;;;;;;;;;5004184;28;20543;-72
2022/01/13 09:54:28;;;;;;;105.65;31.48;;;;;;;;;;4998032;28;20054;-71
2022/01/13 09:56:54;;;;;;;95.80;31.65;;;;;;;;;;4988801;28;20027;-72
2022/01/13 09:59:20;;;;;;;107.55;32.97;;;;;;;;;;5009872;28;20042;-71
2022/01/13 10:01:46;;;;;;;95.43;32.05;;;;;;;;;;5003734;28;20046;-71
2022/01/13 10:04:12;;;;;;;93.28;31.55;;;;;;;;;;5006868;28;20038;-72
2022/01/13 10:06:42;;;;;;;98.72;33.83;;;;;;;;;;4989832;28;20033;-72
2022/01/13 10:09:08;;;;;;;92.15;30.80;;;;;;;;;;5006090;28;20121;-72
2022/01/13 10:11:56;;;;;;;104.15;33.78;;;;;;;;;;5005694;28;20096;-71
2022/01/13 10:17:04;;;;;;;99.07;32.10;;;;;;;;;;5004064;28;20531;-72
2022/01/13 10:19:32;;;;;;;111.75;33.10;;;;;;;;;;5003398;28;20084;-72
2022/01/13 10:21:59;;;;;;;103.93;32.47;;;;;;;;;;5002325;28;20037;-72
2022/01/13 10:24:27;;;;;;;92.03;33.30;;;;;;;;;;5002545;28;20064;-72
2022/01/13 10:26:58;;;;;;;103.68;31.67;;;;;;;;;;4990737;28;20057;-72
2022/01/13 10:29:35;;;;;;;90.70;31.70;;;;;;;;;;5001162;28;20026;-72
2022/01/13 10:32:01;;;;;;;89.38;31.05;;;;;;;;;;5004992;28;20440;-72
2022/01/13 10:34:28;;;;;;;97.35;31.02;;;;;;;;;;4981362;28;20121;-71
2022/01/13 10:36:58;;;;;;;94.00;30.35;;;;;;;;;;5006731;28;20022;-72
2022/01/13 10:39:43;;;;;;;112.95;32.85;;;;;;;;;;4997734;28;20053;-72
2022/01/13 10:42:44;;;;;;;95.10;28.83;;;;;;;;;;4996766;28;20212;-71
2022/01/13 10:44:58;;;;;;;86.10;30.10;;;;;;;;;;4990795;28;20042;-72
2022/01/13 10:47:25;;;;;;;79.93;28.63;;;;;;;;;;5006276;28;20033;-71
2022/01/13 10:49:52;;;;;;;81.28;28.50;;;;;;;;;;4998676;28;20030;-71
2022/01/13 10:52:24;;;;;;;90.22;30.80;;;;;;;;;;4986026;28;20112;-71
2022/01/13 10:54:54;;;;;;;85.95;28.92;;;;;;;;;;5000561;28;20030;-72
2022/01/13 10:57:21;;;;;;;77.47;27.73;;;;;;;;;;4984120;28;20037;-71
2022/01/13 10:59:47;;;;;;;98.55;32.53;;;;;;;;;;4992445;28;20038;-71
2022/01/13 11:02:13;;;;;;;94.80;31.55;;;;;;;;;;4999919;28;20040;-71
2022/01/13 11:04:39;;;;;;;85.15;31.15;;;;;;;;;;5005418;28;20030;-72
2022/01/13 11:07:18;;;;;;;86.65;29.40;;;;;;;;;;5001592;28;20030;-72
2022/01/13 11:09:58;;;;;;;71.20;27.33;;;;;;;;;;5008127;28;20430;-72
2022/01/13 11:12:36;;;;;;;71.50;28.52;;;;;;;;;;4998718;28;20046;-72
2022/01/13 11:15:12;;;;;;;70.22;29.02;;;;;;;;;;5009602;28;20352;-72
2022/01/13 11:17:40;;;;;;;82.85;28.08;;;;;;;;;;5001417;28;20033;-72
2022/01/13 11:20:07;;;;;;;82.10;30.30;;;;;;;;;;4995814;28;20122;-72
2022/01/13 11:22:35;;;;;;;84.57;28.50;;;;;;;;;;5001977;28;20030;-72
2022/01/13 11:25:03;;;;;;;91.50;29.40;;;;;;;;;;5003739;28;20026;-72
2022/01/13 11:27:29;;;;;;;74.47;27.45;;;;;;;;;;4983809;28;20387;-72
2022/01/13 11:29:55;;;;;;;86.35;27.88;;;;;;;;;;4998662;28;20034;-72
2022/01/13 11:32:22;;;;;;;64.60;27.35;;;;;;;;;;5002035;28;20377;-72
2022/01/13 11:34:48;;;;;;;74.22;27.20;;;;;;;;;;5003025;28;20045;-71
2022/01/13 11:37:14;;;;;;;65.40;25.77;;;;;;;;;;4984581;28;20380;-72
2022/01/13 11:39:42;;;;;;;61.17;26.55;;;;;;;;;;4981856;28;20050;-72
2022/01/13 11:42:10;;;;;;;68.10;26.35;;;;;;;;;;5002430;28;20029;-72
2022/01/13 11:44:36;;;;;;;62.08;26.00;;;;;;;;;;5000823;28;20558;-72
2022/01/13 11:47:08;;;;;;;63.00;27.02;;;;;;;;;;5002478;28;20124;-72
2022/01/13 11:49:44;;;;;;;62.05;27.98;;;;;;;;;;4985474;28;20040;-71
2022/01/13 11:52:28;;;;;;;49.53;26.33;;;;;;;;;;4985157;28;20493;-71
2022/01/13 11:54:54;;;;;;;59.95;27.80;;;;;;;;;;5000104;28;20109;-72
2022/01/13 11:57:25;;;;;;;52.00;27.52;;;;;;;;;;4998167;28;20329;-72
2022/01/13 12:00:00;;;;;;;58.97;29.13;;;;;;;;;;5005036;28;20030;-72
2022/01/13 12:02:31;;;;;;;49.55;27.23;;;;;;;;;;5000081;28;20038;-73
2022/01/13 12:05:14;;;;;;;53.53;27.25;;;;;;;;;;5007567;28;20392;-71
2022/01/13 12:07:58;;;;;;;51.85;26.55;;;;;;;;;;5004695;28;20025;-71
2022/01/13 12:10:24;;;;;;;58.03;24.30;;;;;;;;;;5005823;28;20131;-72
2022/01/13 12:12:52;;;;;;;54.65;28.05;;;7.70;99.90;;;;;;5004885;28;20121;-72
2022/01/13 12:15:20;;;;;;;53.47;26.50;;;;;;;;;;5006255;28;20022;-72
2022/01/13 12:17:51;;;;;;;54.88;26.65;;;;;;;;;;4994278;28;20037;-74
2022/01/13 12:20:21;;;;;;;54.13;26.15;;;;;;;;;;4988586;28;20060;-72
2022/01/13 12:22:58;;;;;;;60.42;25.88;;;;;;;;;;5009037;28;20030;-72
2022/01/13 12:25:31;;;;;;;50.40;25.02;;;;;;;;;;5002400;28;20445;-72
2022/01/13 12:27:57;;;;;;;51.00;25.27;;;;;;;;;;5002877;28;20084;-72
2022/01/13 12:30:30;;;;;;;54.72;25.02;;;;;;;;;;4988769;28;20644;-72
2022/01/13 12:33:01;;;;;;;49.20;23.02;;;;;;;;;;5009989;28;20108;-72
2022/01/13 12:35:43;;;;;;;53.72;25.30;;;;;;;;;;4992268;28;20121;-73
2022/01/13 12:38:13;;;;;;;55.20;24.20;;;;;;;;;;5008643;28;20048;-72
2022/01/13 12:40:49;;;;;;;50.90;23.17;;;;;;;;;;5002491;28;20109;-71
2022/01/13 12:46:17;;;;;;;47.38;21.35;;;;;;;;;;5007335;28;20044;-72
2022/01/13 12:48:44;;;;;;;44.28;21.10;;;;;;;;;;4989265;28;20040;-72
2022/01/13 12:51:14;;;;;;;44.15;22.65;;;;;;;;;;4998978;28;20092;-72
2022/01/13 12:53:40;;;;;;;42.95;21.50;;;;;;;;;;5001540;28;20042;-71
2022/01/13 12:56:08;;;;;;;42.15;21.63;;;;;;;;;;5010612;28;20030;-72
2022/01/13 12:58:36;;;;;;;47.13;21.65;;;;;;;;;;5003299;28;20030;-72
2022/01/13 13:01:05;;;;;;;39.45;19.67;;;;;;;;;;5009749;28;20033;-72
2022/01/13 13:03:31;;;;;;;37.33;20.45;;;;;;;;;;5005064;28;20081;-72
2022/01/13 13:05:58;;;;;;;50.83;19.75;;;;;;;;;;5002027;28;20034;-71
2022/01/13 13:08:25;;;;;;;36.63;19.42;;;;;;;;;;5005756;28;20476;-71
2022/01/13 13:10:53;;;;;;;43.72;19.95;;;;;;;;;;5003286;28;20088;-72
2022/01/13 13:13:19;;;;;;;35.03;19.67;;;;;;;;;;5004169;28;20018;-72
2022/01/13 13:15:51;;;;;;;38.67;19.13;;;;;;;;;;5008384;28;20025;-72
2022/01/13 13:18:18;;;;;;;40.60;18.63;;;;;;;;;;5000996;28;20556;-72
2022/01/13 13:20:48;;;;;;;39.17;18.33;;;;;;;;;;4986504;28;20241;-72
2022/01/13 13:23:15;;;;;;;34.33;18.25;;;;;;;;;;5002353;28;20044;-72
2022/01/13 13:25:43;;;;;;;41.45;17.73;;;;;;;;;;4987983;28;20064;-72
2022/01/13 13:28:19;;;;;;;44.13;18.25;;;;;;;;;;4999985;28;20119;-72
2022/01/13 13:30:50;;;;;;;39.97;17.80;;;;;;;;;;5004799;28;20065;-72
2022/01/13 13:33:17;;;;;;;36.17;16.98;;;;;;;;;;5006741;28;20088;-72
2022/01/13 13:35:43;;;;;;;36.50;18.10;;;;;;;;;;5000982;28;20018;-72
2022/01/13 13:38:13;;;;;;;39.80;18.95;;;;;;;;;;5003319;28;20092;-72
2022/01/13 13:40:44;;;;;;;43.58;18.73;;;;;;;;;;5002888;28;20026;-72
2022/01/13 13:43:10;;;;;;;38.20;19.20;;;;;;;;;;5005259;28;20471;-72
2022/01/13 13:45:39;;;;;;;40.05;18.33;;;;;;;;;;5003487;28;20065;-71
2022/01/13 13:48:05;;;;;;;45.53;20.00;;;;;;;;;;4997776;28;20065;-73
2022/01/13 13:50:32;;;;;;;42.45;17.35;;;;;;;;;;5003086;28;20037;-72
2022/01/13 13:53:28;;;;;;;47.40;18.05;;;;;;;;;;5008043;28;20149;-72
2022/01/13 13:55:56;;;;;;;38.92;17.52;;;;;;;;;;4986358;28;20181;-73
2022/01/13 13:58:22;;;;;;;39.13;18.20;;;;;;;;;;5007101;28;20432;-73
2022/01/13 14:00:48;;;;;;;41.63;17.60;;;;;;;;;;5000363;28;20041;-72
2022/01/13 14:03:21;;;;;;;44.55;18.52;;;;;;;;;;5001106;28;20558;-72
2022/01/13 14:05:47;;;;;;;40.50;17.42;;;;;;;;;;4998091;28;20077;-72
2022/01/13 14:08:13;;;;;;;39.20;18.38;;;;;;;;;;4996603;28;20073;-71
2022/01/13 14:10:39;;;;;;;39.83;18.48;;;;;;;;;;4996569;28;20110;-71
2022/01/13 14:13:06;;;;;;;34.47;17.27;;;;;;;;;;5002824;28;20030;-71
2022/01/13 14:15:34;;;;;;;41.28;17.02;;;;;;;;;;4999691;28;20061;-71
2022/01/13 14:18:26;;;;;;;41.47;19.08;;;;;;;;;;5006825;28;20468;-74
2022/01/13 14:20:57;;;;;;;42.35;17.25;;;;;;;;;;5003867;28;20049;-72
2022/01/13 14:23:23;;;;;;;40.55;17.55;;;;;;;;;;4999641;28;20034;-71
2022/01/13 14:25:50;;;;;;;40.33;17.08;;;;;;;;;;5005511;28;20333;-72
2022/01/13 14:28:22;;;;;;;31.27;17.10;;;;;;;;;;5001732;28;20043;-72
2022/01/13 14:30:48;;;;;;;41.17;16.63;;;;;;;;;;4998786;28;20429;-71
2022/01/13 14:33:14;;;;;;;45.83;16.30;;;;;;;;;;5002402;28;20474;-72
2022/01/13 14:35:41;;;;;;;38.70;15.13;;;;;;;;;;5006069;28;20026;-72
2022/01/13 14:38:11;;;;;;;43.72;17.33;;;8.70;99.90;;;;;;4999054;28;20148;-72
2022/01/13 14:40:47;;;;;;;44.72;15.52;;;;;;;;;;4995697;28;20140;-72
2022/01/13 14:43:22;;;;;;;36.83;15.82;;;;;;;;;;5001548;28;20030;-72
2022/01/13 14:45:48;;;;;;;46.33;17.95;;;;;;;;;;5005553;28;20518;-72